LKPR 200000Z 21013KT 9999 -RA NSC 18/12 Q1021 NOSIG LKPR 192330Z 24010KT 9999 -RA NSC 18/11 Q1022 NOSIG LKPR 192300Z 27004KT CAVOK 17/10 Q1022 TEMPO SHRA SCT060CB LKPR 192230Z 27008KT CAVOK 18/10 Q1022 TEMPO 29018KT LKPR 192200Z 19007KT CAVOK 17/10 Q1021 TEMPO 27015KT LKPR 192130Z 19006KT CAVOK 18/09 Q1021 NOSIG LKPR 192100Z 19007KT CAVOK 18/09 Q1020 NOSIG LKPR 192030Z 17006KT CAVOK 19/09 Q1020 NOSIG LKPR 192000Z 18005KT CAVOK 19/09 Q1021 NOSIG LKPR 191930Z 19004KT 160V220 CAVOK 19/09 Q1021 NOSIG LKPR 191900Z 17005KT CAVOK 21/08 Q1020 NOSIG LKPR 191830Z 17004KT CAVOK 22/07 Q1020 NOSIG LKPR 191800Z 16007KT CAVOK 22/08 Q1020 NOSIG LKPR 191730Z 16007KT CAVOK 24/06 Q1020 NOSIG LKPR 191700Z 15008KT CAVOK 25/06 Q1020 NOSIG LKPR 191630Z 16008KT CAVOK 26/06 Q1020 NOSIG LKPR 191600Z 16006KT CAVOK 26/06 Q1020 NOSIG LKPR 191530Z 16007KT CAVOK 26/03 Q1021 NOSIG LKPR 191500Z 15007KT CAVOK 26/04 Q1021 NOSIG LKPR 191430Z 15005KT 110V200 CAVOK 27/03 Q1021 NOSIG LKPR 191400Z 16007KT 120V180 CAVOK 26/03 Q1022 NOSIG LKPR 191330Z 16006KT 120V190 CAVOK 26/06 Q1022 NOSIG LKPR 191300Z 15006KT 100V200 CAVOK 25/04 Q1022 NOSIG LKPR 191230Z 12006KT 080V170 CAVOK 25/03 Q1023 NOSIG LKPR 191200Z 15007KT 120V190 CAVOK 24/02 Q1023 NOSIG LKPR 191130Z 13007KT 100V160 CAVOK 23/02 Q1023 NOSIG LKPR 191100Z 11006KT 070V170 CAVOK 23/04 Q1024 NOSIG LKPR 191030Z 13005KT 060V160 CAVOK 22/02 Q1024 NOSIG LKPR 191000Z 11006KT 040V170 CAVOK 21/03 Q1024 NOSIG LKPR 190930Z 12006KT 070V170 CAVOK 20/03 Q1024 NOSIG LKPR 190900Z VRB05KT CAVOK 19/02 Q1025 NOSIG LKPR 190830Z 14004KT 070V190 CAVOK 18/02 Q1025 NOSIG LKPR 190800Z 15007KT 120V180 CAVOK 17/02 Q1025 NOSIG LKPR 190730Z 17004KT 110V210 CAVOK 17/03 Q1025 NOSIG LKPR 190700Z VRB02KT CAVOK 16/02 Q1026 NOSIG LKPR 190630Z VRB02KT CAVOK 15/05 Q1025 NOSIG LKPR 190600Z 11004KT 080V150 CAVOK 14/02 Q1025 NOSIG LKPR 190530Z 13004KT CAVOK 13/03 Q1025 NOSIG LKPR 190500Z 13006KT CAVOK 12/04 Q1025 NOSIG LKPR 190430Z 12007KT CAVOK 10/04 Q1025 NOSIG LKPR 190400Z 12004KT CAVOK 08/03 Q1025 NOSIG LKPR 190330Z 11003KT CAVOK 07/02 Q1025 NOSIG LKPR 190300Z 12003KT CAVOK 08/02 Q1025 NOSIG LKPR 190230Z 18007KT CAVOK 11/02 Q1025 NOSIG LKPR 190200Z 18010KT CAVOK 11/02 Q1025 NOSIG LKPR 190130Z 19009KT CAVOK 11/03 Q1025 NOSIG LKPR 190100Z 19009KT CAVOK 12/03 Q1025 NOSIG LKPR 190030Z 18009KT CAVOK 13/05 Q1025 NOSIG LKPR 190000Z 18008KT CAVOK 13/06 Q1025 NOSIG LKPR 182330Z 18008KT CAVOK 12/07 Q1025 NOSIG LKPR 182300Z 17006KT CAVOK 12/07 Q1025 NOSIG LKPR 182230Z 19003KT CAVOK 12/08 Q1025 NOSIG LKPR 182200Z VRB02KT CAVOK 12/07 Q1026 NOSIG LKPR 182130Z 13007KT CAVOK 14/07 Q1025 NOSIG LKPR 182100Z 13008KT CAVOK 13/06 Q1025 NOSIG LKPR 182030Z 12007KT CAVOK 13/06 Q1025 NOSIG LKPR 182000Z 11008KT CAVOK 15/06 Q1025 NOSIG LKPR 181930Z 11009KT CAVOK 17/06 Q1026 NOSIG LKPR 181900Z 11009KT CAVOK 17/06 Q1025 NOSIG LKPR 181830Z 10009KT CAVOK 18/07 Q1025 NOSIG LKPR 181800Z 10008KT CAVOK 19/08 Q1025 NOSIG LKPR 181730Z 10008KT 060V120 CAVOK 20/08 Q1025 NOSIG LKPR 181700Z 11006KT 070V140 CAVOK 21/07 Q1025 NOSIG LKPR 181630Z 14007KT 110V170 CAVOK 22/08 Q1025 NOSIG LKPR 181600Z VRB04KT CAVOK 22/08 Q1025 NOSIG LKPR 181530Z 09006KT 360V160 CAVOK 21/08 Q1025 NOSIG LKPR 181500Z VRB04KT CAVOK 21/07 Q1025 NOSIG LKPR 181430Z 13005KT 090V170 CAVOK 21/08 Q1026 NOSIG LKPR 181400Z VRB02KT CAVOK 22/08 Q1026 NOSIG LKPR 181330Z VRB04KT CAVOK 21/08 Q1026 NOSIG LKPR 181300Z VRB05KT CAVOK 21/08 Q1026 NOSIG LKPR 181230Z 04004KT 320V120 CAVOK 21/09 Q1026 NOSIG

METAR Messwerte "PRAGUE/RUZYNE" LKPR

Zurück zur Übersicht

Ortsname
Ländercode / m ü. NN
Zeit Temperatur Taupunkt Rel.
Luftfeuchte
Luftdruck:
Altimeter
NN
Station
Wind in Beaufort
(Knoten)
Sichtweite
(Meter)
Wolken
(Meter über Grund)
Wettererscheinung
PRAGUE/RUZYNE
CZ 364
Fr 20.05. 02:00181268 %1021
1021
978
SSW 4 (13)>= 10000Nicht signifikantRegen (schwach)
PRAGUE/RUZYNE
CZ 364
Fr 20.05. 01:30181164 %1022
1022
979
WSW 3 (10)>= 10000Nicht signifikantRegen (schwach)
PRAGUE/RUZYNE
CZ 364
Fr 20.05. 01:00171063 %1022
1022
979
W 2 (4)>= 10000Nicht signifikant Bald zeitweise: Regen-Schauer
PRAGUE/RUZYNE
CZ 364
Fr 20.05. 00:30181059 %1022
1022
979
W 3 (8)
Bald zeitweise:
WNW 5 (18)
>= 10000Nicht signifikant 
PRAGUE/RUZYNE
CZ 364
Fr 20.05. 00:00171063 %1021
1021
978
S 3 (7)
Bald zeitweise:
W 4 (15)
>= 10000Nicht signifikant 
PRAGUE/RUZYNE
CZ 364
Do 19.05. 23:3018956 %1021
1021
978
S 2 (6)>= 10000Nicht signifikant 
PRAGUE/RUZYNE
CZ 364
Do 19.05. 23:0018956 %1020
1020
977
S 3 (7)>= 10000Nicht signifikant 
PRAGUE/RUZYNE
CZ 364
Do 19.05. 22:3019952 %1020
1019
977
S 2 (6)>= 10000Nicht signifikant 
PRAGUE/RUZYNE
CZ 364
Do 19.05. 22:0019952 %1021
1020
978
S 2 (5)>= 10000Nicht signifikant 
PRAGUE/RUZYNE
CZ 364
Do 19.05. 21:3019952 %1021
1020
978
S 2 (4)
SSO - SW
>= 10000Nicht signifikant 
PRAGUE/RUZYNE
CZ 364
Do 19.05. 21:0021843 %1020
1019
977
S 2 (5)>= 10000Nicht signifikant 
PRAGUE/RUZYNE
CZ 364
Do 19.05. 20:3022738 %1020
1019
977
S 2 (4)>= 10000Nicht signifikant 
PRAGUE/RUZYNE
CZ 364
Do 19.05. 20:0022841 %1020
1019
977
SSO 3 (7)>= 10000Nicht signifikant 
PRAGUE/RUZYNE
CZ 364
Do 19.05. 19:3024631 %1020
1019
977
SSO 3 (7)>= 10000Nicht signifikant 
PRAGUE/RUZYNE
CZ 364
Do 19.05. 19:0025630 %1020
1019
977
SSO 3 (8)>= 10000Nicht signifikant 
PRAGUE/RUZYNE
CZ 364
Do 19.05. 18:3026628 %1020
1018
977
SSO 3 (8)>= 10000Nicht signifikant 
PRAGUE/RUZYNE
CZ 364
Do 19.05. 18:0026628 %1020
1018
977
SSO 2 (6)>= 10000Nicht signifikant 
PRAGUE/RUZYNE
CZ 364
Do 19.05. 17:3026323 %1021
1019
978
SSO 3 (7)>= 10000Nicht signifikant 
PRAGUE/RUZYNE
CZ 364
Do 19.05. 17:0026424 %1021
1019
978
SSO 3 (7)>= 10000Nicht signifikant 
PRAGUE/RUZYNE
CZ 364
Do 19.05. 16:3027321 %1021
1019
978
SSO 2 (5)
OSO - SSW
>= 10000Nicht signifikant 
PRAGUE/RUZYNE
CZ 364
Do 19.05. 16:0026323 %1022
1020
979
SSO 3 (7)
OSO - S
>= 10000Nicht signifikant 
PRAGUE/RUZYNE
CZ 364
Do 19.05. 15:3026628 %1022
1020
979
SSO 2 (6)
OSO - S
>= 10000Nicht signifikant 
PRAGUE/RUZYNE
CZ 364
Do 19.05. 15:0025426 %1022
1021
979
SSO 2 (6)
O - SSW
>= 10000Nicht signifikant 
PRAGUE/RUZYNE
CZ 364
Do 19.05. 14:3025324 %1023
1022
980
OSO 2 (6)
O - S
>= 10000Nicht signifikant 
PRAGUE/RUZYNE
CZ 364
Do 19.05. 14:0024224 %1023
1022
980
SSO 3 (7)
OSO - S
>= 10000Nicht signifikant 
PRAGUE/RUZYNE
CZ 364
Do 19.05. 13:3023225 %1023
1022
980
SO 3 (7)
O - SSO
>= 10000Nicht signifikant 
PRAGUE/RUZYNE
CZ 364
Do 19.05. 13:0023429 %1024
1023
981
OSO 2 (6)
ONO - S
>= 10000Nicht signifikant 
PRAGUE/RUZYNE
CZ 364
Do 19.05. 12:3022227 %1024
1023
981
SO 2 (5)
ONO - SSO
>= 10000Nicht signifikant 
PRAGUE/RUZYNE
CZ 364
Do 19.05. 12:0021330 %1024
1023
981
OSO 2 (6)
NO - S
>= 10000Nicht signifikant 
PRAGUE/RUZYNE
CZ 364
Do 19.05. 11:3020332 %1024
1023
981
OSO 2 (6)
ONO - S
>= 10000Nicht signifikant 
PRAGUE/RUZYNE
CZ 364
Do 19.05. 11:0019232 %1025
1024
982
Uml 2 (5)>= 10000Nicht signifikant 
PRAGUE/RUZYNE
CZ 364
Do 19.05. 10:3018234 %1025
1025
982
SO 2 (4)
ONO - S
>= 10000Nicht signifikant 
PRAGUE/RUZYNE
CZ 364
Do 19.05. 10:0017236 %1025
1025
982
SSO 3 (7)
OSO - S
>= 10000Nicht signifikant 
PRAGUE/RUZYNE
CZ 364
Do 19.05. 09:3017339 %1025
1025
982
S 2 (4)
OSO - SSW
>= 10000Nicht signifikant 
PRAGUE/RUZYNE
CZ 364
Do 19.05. 09:0016239 %1026
1026
983
Uml 1 (2)>= 10000Nicht signifikant 
PRAGUE/RUZYNE
CZ 364
Do 19.05. 08:3015551 %1025
1025
982
Uml 1 (2)>= 10000Nicht signifikant 
PRAGUE/RUZYNE
CZ 364
Do 19.05. 08:0014244 %1025
1025
982
OSO 2 (4)
O - SSO
>= 10000Nicht signifikant 
PRAGUE/RUZYNE
CZ 364
Do 19.05. 07:3013351 %1025
1025
982
SO 2 (4)>= 10000Nicht signifikant 
PRAGUE/RUZYNE
CZ 364
Do 19.05. 07:0012458 %1025
1026
982
SO 2 (6)>= 10000Nicht signifikant 
PRAGUE/RUZYNE
CZ 364
Do 19.05. 06:3010466 %1025
1026
982
OSO 3 (7)>= 10000Nicht signifikant 
PRAGUE/RUZYNE
CZ 364
Do 19.05. 06:008371 %1025
1026
982
OSO 2 (4)>= 10000Nicht signifikant 
PRAGUE/RUZYNE
CZ 364
Do 19.05. 05:307270 %1025
1026
982
OSO 2 (3)>= 10000Nicht signifikant 
PRAGUE/RUZYNE
CZ 364
Do 19.05. 05:008266 %1025
1026
982
OSO 2 (3)>= 10000Nicht signifikant 
PRAGUE/RUZYNE
CZ 364
Do 19.05. 04:3011254 %1025
1026
982
S 3 (7)>= 10000Nicht signifikant 
PRAGUE/RUZYNE
CZ 364
Do 19.05. 04:0011254 %1025
1026
982
S 3 (10)>= 10000Nicht signifikant 
PRAGUE/RUZYNE
CZ 364
Do 19.05. 03:3011358 %1025
1026
982
S 3 (9)>= 10000Nicht signifikant 
PRAGUE/RUZYNE
CZ 364
Do 19.05. 03:0012354 %1025
1026
982
S 3 (9)>= 10000Nicht signifikant 
PRAGUE/RUZYNE
CZ 364
Do 19.05. 02:3013558 %1025
1025
982
S 3 (9)>= 10000Nicht signifikant 
PRAGUE/RUZYNE
CZ 364
Do 19.05. 02:0013662 %1025
1025
982
S 3 (8)>= 10000Nicht signifikant 
PRAGUE/RUZYNE
CZ 364
Do 19.05. 01:3012771 %1025
1026
982
S 3 (8)>= 10000Nicht signifikant 
PRAGUE/RUZYNE
CZ 364
Do 19.05. 01:0012771 %1025
1026
982
S 2 (6)>= 10000Nicht signifikant 
PRAGUE/RUZYNE
CZ 364
Do 19.05. 00:3012876 %1025
1026
982
S 2 (3)>= 10000Nicht signifikant 
PRAGUE/RUZYNE
CZ 364
Do 19.05. 00:0012771 %1026
1027
983
Uml 1 (2)>= 10000Nicht signifikant 
PRAGUE/RUZYNE
CZ 364
Mi 18.05. 23:3014763 %1025
1025
982
SO 3 (7)>= 10000Nicht signifikant 
PRAGUE/RUZYNE
CZ 364
Mi 18.05. 23:0013662 %1025
1025
982
SO 3 (8)>= 10000Nicht signifikant 
PRAGUE/RUZYNE
CZ 364
Mi 18.05. 22:3013662 %1025
1025
982
OSO 3 (7)>= 10000Nicht signifikant 
PRAGUE/RUZYNE
CZ 364
Mi 18.05. 22:0015655 %1025
1025
982
OSO 3 (8)>= 10000Nicht signifikant 
PRAGUE/RUZYNE
CZ 364
Mi 18.05. 21:3017648 %1026
1026
983
OSO 3 (9)>= 10000Nicht signifikant 
PRAGUE/RUZYNE
CZ 364
Mi 18.05. 21:0017648 %1025
1025
982
OSO 3 (9)>= 10000Nicht signifikant 
PRAGUE/RUZYNE
CZ 364
Mi 18.05. 20:3018749 %1025
1025
982
O 3 (9)>= 10000Nicht signifikant 
PRAGUE/RUZYNE
CZ 364
Mi 18.05. 20:0019849 %1025
1024
982
O 3 (8)>= 10000Nicht signifikant 
PRAGUE/RUZYNE
CZ 364
Mi 18.05. 19:3020846 %1025
1024
982
O 3 (8)
ONO - OSO
>= 10000Nicht signifikant 
PRAGUE/RUZYNE
CZ 364
Mi 18.05. 19:0021740 %1025
1024
982
OSO 2 (6)
ONO - SO
>= 10000Nicht signifikant 
PRAGUE/RUZYNE
CZ 364
Mi 18.05. 18:3022841 %1025
1024
982
SO 3 (7)
OSO - S
>= 10000Nicht signifikant 
PRAGUE/RUZYNE
CZ 364
Mi 18.05. 18:0022841 %1025
1024
982
Uml 2 (4)>= 10000Nicht signifikant 
PRAGUE/RUZYNE
CZ 364
Mi 18.05. 17:3021843 %1025
1024
982
O 2 (6)
N - SSO
>= 10000Nicht signifikant 
PRAGUE/RUZYNE
CZ 364
Mi 18.05. 17:0021740 %1025
1024
982
Uml 2 (4)>= 10000Nicht signifikant 
PRAGUE/RUZYNE
CZ 364
Mi 18.05. 16:3021843 %1026
1025
983
SO 2 (5)
O - S
>= 10000Nicht signifikant 
PRAGUE/RUZYNE
CZ 364
Mi 18.05. 16:0022841 %1026
1025
983
Uml 1 (2)>= 10000Nicht signifikant 
PRAGUE/RUZYNE
CZ 364
Mi 18.05. 15:3021843 %1026
1025
983
Uml 2 (4)>= 10000Nicht signifikant 
PRAGUE/RUZYNE
CZ 364
Mi 18.05. 15:0021843 %1026
1025
983
Uml 2 (5)>= 10000Nicht signifikant 
PRAGUE/RUZYNE
CZ 364
Mi 18.05. 14:3021946 %1026
1025
983
NO 2 (4)
NW - OSO
>= 10000Nicht signifikant 

Altimeter: Einstellung am Altimeter (Höhenmesser), die Höhe 0 muss auf diesen Luftdruckwert zeigen, damit das Gerät die Stationshöhe richtig anzeigt.

NN: Luftdruck reduziert auf "Normal Null", auf Meereshöhe, dieser von der Temperatur abhängige Wert wird bisweilen unkorrekt einfach als "Luftdruck" bezeichnet. Eigentlich nur eine fiktive Größe, die es erlaubt, Stationen auf unterschiedlichen Höhen miteinander zu vergleichen.

Station: Realer Luftdruck an der Station.